createdAt,value
2023-05-25T00:00:13.808Z,96958.00
2023-05-25T00:02:40.832Z,96957.88
2023-05-25T00:05:08.680Z,96955.31
2023-05-25T00:07:35.618Z,96967.56
2023-05-25T00:10:02.657Z,96942.19
2023-05-25T00:12:29.517Z,96957.47
2023-05-25T00:14:56.387Z,96950.13
2023-05-25T00:17:23.243Z,96946.00
2023-05-25T00:19:50.496Z,96959.69
2023-05-25T00:22:17.436Z,96958.81
2023-05-25T00:24:44.276Z,96948.22
2023-05-25T00:27:11.139Z,96948.72
2023-05-25T00:29:37.983Z,96937.47
2023-05-25T00:32:05.457Z,96944.00
2023-05-25T00:34:32.231Z,96941.06
2023-05-25T00:36:59.088Z,96942.44
2023-05-25T00:39:25.829Z,96951.13
2023-05-25T00:41:52.765Z,96932.88
2023-05-25T00:44:19.610Z,96942.72
2023-05-25T00:46:50.468Z,96934.75
2023-05-25T00:49:18.424Z,96934.44
2023-05-25T00:51:45.961Z,96935.00
2023-05-25T00:54:16.258Z,96931.47
2023-05-25T00:56:50.792Z,96927.41
2023-05-25T00:59:20.917Z,96939.47
2023-05-25T01:01:47.737Z,96919.81
2023-05-25T01:04:15.464Z,96923.84
2023-05-25T01:06:44.091Z,96922.44
2023-05-25T01:09:11.800Z,96926.56
2023-05-25T01:11:41.435Z,96926.34
2023-05-25T01:14:08.499Z,96928.81
2023-05-25T01:16:35.959Z,96931.16
2023-05-25T01:19:02.721Z,96926.78
2023-05-25T01:21:35.388Z,96932.53
2023-05-25T01:24:10.128Z,96928.16
2023-05-25T01:26:54.052Z,96929.00
2023-05-25T01:29:20.952Z,96935.59
2023-05-25T01:31:48.879Z,96927.84
2023-05-25T01:34:15.658Z,96935.84
2023-05-25T01:36:42.412Z,96938.56
2023-05-25T01:39:09.870Z,96933.38
2023-05-25T01:41:36.649Z,96942.06
2023-05-25T01:44:03.495Z,96945.03
2023-05-25T01:46:34.710Z,96943.19
2023-05-25T01:49:20.024Z,96943.72
2023-05-25T01:52:13.210Z,96948.59
2023-05-25T01:54:43.419Z,96949.69
2023-05-25T01:57:15.662Z,96946.94
2023-05-25T01:59:43.537Z,96942.31
2023-05-25T02:02:10.339Z,96951.06
2023-05-25T02:04:37.141Z,96933.38
2023-05-25T02:07:04.792Z,96947.50
2023-05-25T02:09:31.629Z,96944.78
2023-05-25T02:11:58.649Z,96943.13
2023-05-25T02:14:25.408Z,96939.91
2023-05-25T02:16:52.182Z,96940.06
2023-05-25T02:19:18.964Z,96943.13
2023-05-25T02:21:45.774Z,96940.66
2023-05-25T02:24:12.640Z,96934.97
2023-05-25T02:26:39.478Z,96936.28
2023-05-25T02:29:06.424Z,96940.41
2023-05-25T02:31:33.446Z,96925.38
2023-05-25T02:34:00.311Z,96925.94
2023-05-25T02:36:27.120Z,96932.22
2023-05-25T02:38:54.051Z,96930.59
2023-05-25T02:41:20.999Z,96922.16
2023-05-25T02:43:47.834Z,96926.78
2023-05-25T02:46:14.717Z,96922.41
2023-05-25T02:48:42.049Z,96928.94
2023-05-25T02:51:08.927Z,96929.00
2023-05-25T02:53:35.750Z,96920.25
2023-05-25T02:56:03.090Z,96929.81
2023-05-25T02:58:29.848Z,96920.25
2023-05-25T03:00:56.642Z,96927.34
2023-05-25T03:03:23.456Z,96927.03
2023-05-25T03:05:50.333Z,96927.59
2023-05-25T03:08:17.340Z,96925.94
2023-05-25T03:10:44.363Z,96938.78
2023-05-25T03:13:11.350Z,96940.94
2023-05-25T03:15:38.288Z,96933.88
2023-05-25T03:18:05.259Z,96943.88
2023-05-25T03:20:32.259Z,96940.94
2023-05-25T03:22:59.192Z,96940.41
2023-05-25T03:25:25.980Z,96939.03
2023-05-25T03:27:55.934Z,96936.53
2023-05-25T03:30:23.019Z,96947.44
2023-05-25T03:32:49.755Z,96945.53
2023-05-25T03:35:16.701Z,96948.78
2023-05-25T03:37:43.454Z,96946.03
2023-05-25T03:40:10.443Z,96941.16
2023-05-25T03:42:38.111Z,96941.94
2023-05-25T03:45:06.008Z,96945.53
2023-05-25T03:47:33.059Z,96942.56
2023-05-25T03:49:59.904Z,96941.75
2023-05-25T03:52:26.705Z,96936.28
2023-05-25T03:54:53.412Z,96941.50
2023-05-25T03:57:20.161Z,96945.53
2023-05-25T03:59:46.913Z,96938.19
2023-05-25T04:02:13.741Z,96943.97
2023-05-25T04:04:40.554Z,96946.59
2023-05-25T04:07:08.014Z,96948.03
2023-05-25T04:09:34.721Z,96952.66
2023-05-25T04:12:01.436Z,96962.41
2023-05-25T04:14:28.354Z,96963.22
2023-05-25T04:16:55.090Z,96965.78
2023-05-25T04:19:21.860Z,96963.31
2023-05-25T04:21:48.631Z,96969.03
2023-05-25T04:24:15.428Z,96972.50
2023-05-25T04:26:42.223Z,96968.69
2023-05-25T04:29:09.597Z,96967.94
2023-05-25T04:31:36.504Z,96969.25
2023-05-25T04:34:03.409Z,96972.31
2023-05-25T04:36:30.337Z,96977.69
2023-05-25T04:38:57.218Z,96981.31
2023-05-25T04:41:24.040Z,96985.13
2023-05-25T04:44:05.690Z,96997.88
2023-05-25T04:46:35.127Z,96986.13
2023-05-25T04:49:01.934Z,96983.59
2023-05-25T04:51:28.673Z,96994.25
2023-05-25T04:53:55.473Z,96998.22
2023-05-25T04:56:22.344Z,97002.50
2023-05-25T04:58:49.251Z,97001.59
2023-05-25T05:01:16.139Z,97007.63
2023-05-25T05:03:42.941Z,97006.88
2023-05-25T05:06:09.850Z,97019.16
2023-05-25T05:08:36.545Z,97017.16
2023-05-25T05:11:03.445Z,97034.97
2023-05-25T05:13:30.316Z,97048.84
2023-05-25T05:15:57.103Z,97053.81
2023-05-25T05:18:23.859Z,97063.66
2023-05-25T05:20:50.675Z,97061.75
2023-05-25T05:23:17.420Z,97064.66
2023-05-25T05:25:44.546Z,97066.81
2023-05-25T05:28:11.586Z,97072.41
2023-05-25T05:30:38.401Z,97075.56
2023-05-25T05:33:05.326Z,97086.97
2023-05-25T05:35:32.151Z,97093.81
2023-05-25T05:37:58.949Z,97091.09
2023-05-25T05:40:25.773Z,97093.50
2023-05-25T05:42:55.265Z,97093.81
2023-05-25T05:45:23.381Z,97097.94
2023-05-25T05:47:50.196Z,97098.47
2023-05-25T05:50:17.008Z,97102.31
2023-05-25T05:52:43.745Z,97102.84
2023-05-25T05:55:10.482Z,97097.13
2023-05-25T05:57:37.196Z,97100.69
2023-05-25T06:00:04.331Z,97101.50
2023-05-25T06:02:31.151Z,97099.84
2023-05-25T06:04:57.952Z,97106.88
2023-05-25T06:07:24.710Z,97110.88
2023-05-25T06:09:51.421Z,97111.59
2023-05-25T06:12:18.176Z,97112.50
2023-05-25T06:14:44.991Z,97119.19
2023-05-25T06:17:11.828Z,97122.59
2023-05-25T06:19:38.660Z,97125.78
2023-05-25T06:22:05.618Z,97126.47
2023-05-25T06:24:32.440Z,97129.69
2023-05-25T06:26:59.243Z,97130.28
2023-05-25T06:29:25.990Z,97135.78
2023-05-25T06:31:52.890Z,97134.25
2023-05-25T06:34:19.718Z,97135.78
2023-05-25T06:36:46.728Z,97135.22
2023-05-25T06:39:13.687Z,97134.16
2023-05-25T06:41:40.589Z,97138.88
2023-05-25T06:44:07.570Z,97139.13
2023-05-25T06:46:34.481Z,97145.31
2023-05-25T06:49:01.545Z,97144.06
2023-05-25T06:51:28.474Z,97145.31
2023-05-25T06:53:55.721Z,97137.88
2023-05-25T06:56:22.695Z,97140.84
2023-05-25T06:58:50.103Z,97139.03
2023-05-25T07:01:17.030Z,97137.97
2023-05-25T07:03:44.202Z,97136.63
2023-05-25T07:06:10.982Z,97145.31
2023-05-25T07:08:38.203Z,97151.34
2023-05-25T07:11:05.064Z,97145.88
2023-05-25T07:13:31.882Z,97151.41
2023-05-25T07:15:58.787Z,97145.50
2023-05-25T07:18:26.090Z,97155.09
2023-05-25T07:20:53.545Z,97155.91
2023-05-25T07:23:30.701Z,97158.66
2023-05-25T07:26:09.029Z,97166.47
2023-05-25T07:28:38.846Z,97161.94
2023-05-25T07:31:08.652Z,97167.75
2023-05-25T07:33:36.072Z,97179.66
2023-05-25T07:36:03.923Z,97181.41
2023-05-25T07:38:34.324Z,97184.69
2023-05-25T07:41:03.031Z,97174.19
2023-05-25T07:43:34.533Z,97185.53
2023-05-25T07:46:12.142Z,97191.25
2023-05-25T07:48:44.178Z,97194.44
2023-05-25T07:51:17.026Z,97194.53
2023-05-25T07:54:11.699Z,97206.03
2023-05-25T07:56:52.243Z,97192.06
2023-05-25T07:59:24.283Z,97190.31
2023-05-25T08:01:52.909Z,97197.34
2023-05-25T08:04:21.713Z,97203.31
2023-05-25T08:07:00.225Z,97195.44
2023-05-25T08:09:29.027Z,97189.97
2023-05-25T08:12:23.908Z,97193.16
2023-05-25T08:14:50.096Z,97189.16
2023-05-25T08:17:22.235Z,97188.66
2023-05-25T08:19:52.728Z,97195.53
2023-05-25T08:22:30.225Z,97195.88
2023-05-25T08:25:09.198Z,97207.88
2023-05-25T08:27:36.589Z,97200.31
2023-05-25T08:30:04.627Z,97201.34
2023-05-25T08:32:31.342Z,97211.75
2023-05-25T08:34:58.565Z,97218.59
2023-05-25T08:37:25.735Z,97213.50
2023-05-25T08:39:52.514Z,97214.22
2023-05-25T08:42:19.429Z,97219.44
2023-05-25T08:44:46.178Z,97217.53
2023-05-25T08:47:13.018Z,97209.84
2023-05-25T08:49:40.083Z,97220.44
2023-05-25T08:52:08.802Z,97222.09
2023-05-25T08:54:36.756Z,97224.00
2023-05-25T08:57:12.218Z,97227.44
2023-05-25T08:59:46.888Z,97226.88
2023-05-25T09:02:22.684Z,97222.25
2023-05-25T09:04:49.671Z,97226.88
2023-05-25T09:07:16.448Z,97231.06
2023-05-25T09:09:43.347Z,97239.13
2023-05-25T09:12:10.150Z,97246.50
2023-05-25T09:14:36.958Z,97234.13
2023-05-25T09:17:03.879Z,97235.19
2023-05-25T09:19:30.618Z,97238.50
2023-05-25T09:22:13.339Z,97237.28
2023-05-25T09:24:42.207Z,97243.50
2023-05-25T09:27:11.283Z,97246.94
2023-05-25T09:29:38.219Z,97242.44
2023-05-25T09:32:05.620Z,97233.06
2023-05-25T09:34:32.514Z,97239.59
2023-05-25T09:36:59.964Z,97234.34
2023-05-25T09:39:26.914Z,97237.91
2023-05-25T09:41:53.810Z,97242.22
2023-05-25T09:44:20.694Z,97228.91
2023-05-25T09:46:47.591Z,97232.28
2023-05-25T09:49:14.352Z,97222.53
2023-05-25T09:51:41.120Z,97227.19
2023-05-25T09:54:09.813Z,97236.69
2023-05-25T09:56:36.663Z,97229.66
2023-05-25T09:59:03.537Z,97231.22
2023-05-25T10:01:31.890Z,97245.47
2023-05-25T10:04:04.343Z,97241.53
2023-05-25T10:06:32.843Z,97245.53
2023-05-25T10:09:00.491Z,97248.25
2023-05-25T10:11:27.650Z,97240.72
2023-05-25T10:13:55.075Z,97251.22
2023-05-25T10:16:28.099Z,97258.69
2023-05-25T10:18:59.078Z,97264.72
2023-05-25T10:21:25.980Z,97255.56
2023-05-25T10:23:54.428Z,97267.31
2023-05-25T10:26:24.040Z,97260.38
2023-05-25T10:28:51.216Z,97272.03
2023-05-25T10:31:18.273Z,97250.69
2023-05-25T10:33:49.151Z,97258.47
2023-05-25T10:36:18.995Z,97267.59
2023-05-25T10:38:45.725Z,97278.00
2023-05-25T10:41:12.512Z,97263.84
2023-05-25T10:43:39.399Z,97278.81
2023-05-25T10:46:06.310Z,97277.94
2023-05-25T10:48:39.753Z,97272.38
2023-05-25T10:51:07.722Z,97273.69
2023-05-25T10:53:36.069Z,97283.53
2023-05-25T10:56:04.170Z,97289.00
2023-05-25T10:58:31.576Z,97290.06
2023-05-25T11:00:59.129Z,97288.69
2023-05-25T11:03:44.039Z,97289.56
2023-05-25T11:06:11.662Z,97296.13
2023-05-25T11:08:57.778Z,97296.03
2023-05-25T11:11:42.557Z,97298.59
2023-05-25T11:14:27.334Z,97302.72
2023-05-25T11:17:12.214Z,97300.50
2023-05-25T11:19:39.856Z,97308.00
2023-05-25T11:22:19.911Z,97304.31
2023-05-25T11:24:47.597Z,97307.34
2023-05-25T11:27:14.574Z,97311.16
2023-05-25T11:29:41.361Z,97306.19
2023-05-25T11:32:14.344Z,97313.63
2023-05-25T11:34:41.094Z,97318.06
2023-05-25T11:37:09.042Z,97317.13
2023-05-25T11:39:37.158Z,97309.50
2023-05-25T11:42:06.731Z,97313.06
2023-05-25T11:44:34.479Z,97314.72
2023-05-25T11:47:10.808Z,97313.56
2023-05-25T11:49:40.921Z,97311.78
2023-05-25T11:52:07.693Z,97314.72
2023-05-25T11:54:38.040Z,97317.44
2023-05-25T11:57:05.013Z,97317.81
2023-05-25T11:59:32.705Z,97319.97
2023-05-25T12:02:00.708Z,97323.72
2023-05-25T12:04:28.290Z,97318.63
2023-05-25T12:07:05.228Z,97323.97
2023-05-25T12:09:32.193Z,97322.69
2023-05-25T12:11:59.209Z,97317.06
2023-05-25T12:14:26.170Z,97324.09
2023-05-25T12:16:53.034Z,97315.41
2023-05-25T12:19:19.867Z,97313.75
2023-05-25T12:21:46.649Z,97316.72
2023-05-25T12:24:13.443Z,97315.41
2023-05-25T12:26:53.252Z,97319.53
2023-05-25T12:29:20.072Z,97318.38
2023-05-25T12:31:46.874Z,97312.41
2023-05-25T12:34:14.810Z,97322.75
2023-05-25T12:36:42.507Z,97317.56
2023-05-25T12:39:09.644Z,97325.81
2023-05-25T12:41:54.619Z,97309.94
2023-05-25T12:44:28.670Z,97320.78
2023-05-25T12:46:55.911Z,97317.72
2023-05-25T12:49:30.230Z,97320.88
2023-05-25T12:51:57.490Z,97324.91
2023-05-25T12:54:46.265Z,97318.97
2023-05-25T12:57:14.212Z,97321.44
2023-05-25T12:59:45.895Z,97320.94
2023-05-25T13:02:13.562Z,97313.31
2023-05-25T13:04:41.096Z,97308.13
2023-05-25T13:07:08.421Z,97313.56
2023-05-25T13:09:35.383Z,97322.44
2023-05-25T13:12:02.268Z,97302.50
2023-05-25T13:14:29.631Z,97315.38
2023-05-25T13:16:56.680Z,97308.03
2023-05-25T13:19:25.113Z,97315.97
2023-05-25T13:21:52.343Z,97313.56
2023-05-25T13:24:19.191Z,97309.00
2023-05-25T13:26:48.178Z,97318.28
2023-05-25T13:29:16.742Z,97317.19
2023-05-25T13:31:43.588Z,97322.09
2023-05-25T13:34:10.464Z,97307.09
2023-05-25T13:36:37.310Z,97302.84
2023-05-25T13:39:04.097Z,97317.72
2023-05-25T13:41:31.656Z,97312.75
2023-05-25T13:43:58.652Z,97310.34
2023-05-25T13:46:34.052Z,97307.94
2023-05-25T13:49:03.465Z,97313.72
2023-05-25T13:51:30.437Z,97300.97
2023-05-25T13:53:57.326Z,97312.22
2023-05-25T13:56:24.228Z,97319.94
2023-05-25T13:58:51.094Z,97316.69
2023-05-25T14:01:17.990Z,97309.88
2023-05-25T14:03:45.106Z,97304.97
2023-05-25T14:06:12.054Z,97304.50
2023-05-25T14:08:38.908Z,97300.97
2023-05-25T14:11:05.801Z,97306.44
2023-05-25T14:13:32.620Z,97308.34
2023-05-25T14:15:59.501Z,97308.06
2023-05-25T14:18:26.314Z,97300.72
2023-05-25T14:20:53.116Z,97301.63
2023-05-25T14:23:19.994Z,97304.03
2023-05-25T14:25:47.269Z,97298.06
2023-05-25T14:28:14.597Z,97306.28
2023-05-25T14:30:41.621Z,97303.81
2023-05-25T14:33:08.478Z,97307.59
2023-05-25T14:35:35.285Z,97310.09
2023-05-25T14:38:02.193Z,97308.22
2023-05-25T14:40:29.048Z,97303.06
2023-05-25T14:42:55.990Z,97304.81
2023-05-25T14:45:22.858Z,97303.03
2023-05-25T14:47:53.621Z,97300.38
2023-05-25T14:50:29.640Z,97307.84
2023-05-25T14:52:57.339Z,97304.66
2023-05-25T14:55:25.346Z,97298.47
2023-05-25T14:57:52.230Z,97303.78
2023-05-25T15:00:19.363Z,97301.72
2023-05-25T15:02:46.242Z,97298.91
2023-05-25T15:05:13.065Z,97293.31
2023-05-25T15:07:39.834Z,97300.44
2023-05-25T15:10:07.335Z,97304.34
2023-05-25T15:12:34.107Z,97312.94
2023-05-25T15:15:00.897Z,97315.97
2023-05-25T15:17:27.748Z,97303.66
2023-05-25T15:19:57.268Z,97311.94
2023-05-25T15:22:24.050Z,97318.84
2023-05-25T15:24:50.841Z,97317.31
2023-05-25T15:27:17.699Z,97312.59
2023-05-25T15:29:44.568Z,97324.38
2023-05-25T15:32:11.870Z,97320.34
2023-05-25T15:34:38.780Z,97324.13
2023-05-25T15:37:05.678Z,97323.38
2023-05-25T15:39:32.611Z,97324.13
2023-05-25T15:41:59.493Z,97335.69
2023-05-25T15:44:26.353Z,97339.09
2023-05-25T15:46:53.291Z,97345.50
2023-05-25T15:49:20.206Z,97344.31
2023-05-25T15:51:47.081Z,97347.94
2023-05-25T15:54:14.870Z,97344.59
2023-05-25T15:56:41.855Z,97340.19
2023-05-25T15:59:08.819Z,97332.28
2023-05-25T16:01:35.668Z,97335.28
2023-05-25T16:04:03.588Z,97327.41
2023-05-25T16:06:30.790Z,97327.38
2023-05-25T16:08:57.696Z,97328.34
2023-05-25T16:11:25.495Z,97327.00
2023-05-25T16:13:52.436Z,97329.13
2023-05-25T16:16:19.318Z,97338.19
2023-05-25T16:18:46.552Z,97337.91
2023-05-25T16:21:13.647Z,97328.69
2023-05-25T16:23:40.562Z,97339.03
2023-05-25T16:26:07.478Z,97332.97
2023-05-25T16:28:34.381Z,97338.06
2023-05-25T16:31:01.159Z,97337.28
2023-05-25T16:33:28.016Z,97348.84
2023-05-25T16:35:54.820Z,97346.84
2023-05-25T16:38:21.685Z,97346.06
2023-05-25T16:40:48.510Z,97353.59
2023-05-25T16:43:15.340Z,97347.78
2023-05-25T16:45:42.161Z,97351.63
2023-05-25T16:48:09.010Z,97360.94
2023-05-25T16:50:35.863Z,97366.41
2023-05-25T16:53:02.623Z,97369.59
2023-05-25T16:55:29.412Z,97371.75
2023-05-25T16:57:56.202Z,97374.44
2023-05-25T17:00:23.175Z,97374.06
2023-05-25T17:02:50.076Z,97364.38
2023-05-25T17:05:16.986Z,97364.88
2023-05-25T17:07:43.821Z,97369.25
2023-05-25T17:10:10.897Z,97363.72
2023-05-25T17:12:37.665Z,97366.22
2023-05-25T17:15:04.862Z,97367.91
2023-05-25T17:17:31.633Z,97370.63
2023-05-25T17:19:58.469Z,97367.78
2023-05-25T17:22:25.285Z,97376.97
2023-05-25T17:24:52.112Z,97378.97
2023-05-25T17:27:18.831Z,97378.66
2023-05-25T17:29:45.562Z,97389.91
2023-05-25T17:32:12.442Z,97379.72
2023-05-25T17:34:39.230Z,97377.88
2023-05-25T17:37:06.014Z,97391.19
2023-05-25T17:39:32.816Z,97382.06
2023-05-25T17:41:59.550Z,97384.28
2023-05-25T17:44:26.274Z,97385.00
2023-05-25T17:46:52.989Z,97378.03
2023-05-25T17:49:19.808Z,97379.13
2023-05-25T17:51:46.623Z,97384.91
2023-05-25T17:54:13.416Z,97386.19
2023-05-25T17:56:40.149Z,97381.91
2023-05-25T17:59:06.957Z,97383.19
2023-05-25T18:01:33.915Z,97385.88
2023-05-25T18:04:01.257Z,97384.16
2023-05-25T18:06:29.311Z,97394.41
2023-05-25T18:08:56.341Z,97398.50
2023-05-25T18:11:23.166Z,97400.31
2023-05-25T18:13:49.966Z,97414.22
2023-05-25T18:16:16.741Z,97410.50
2023-05-25T18:18:43.583Z,97409.59
2023-05-25T18:21:10.340Z,97417.06
2023-05-25T18:23:37.876Z,97412.34
2023-05-25T18:26:04.835Z,97411.66
2023-05-25T18:28:31.634Z,97415.22
2023-05-25T18:30:58.403Z,97417.38
2023-05-25T18:33:25.178Z,97417.06
2023-05-25T18:35:51.940Z,97415.91
2023-05-25T18:38:18.742Z,97428.16
2023-05-25T18:40:45.501Z,97426.44
2023-05-25T18:43:12.290Z,97428.56
2023-05-25T18:45:38.994Z,97425.00
2023-05-25T18:48:06.009Z,97425.28
2023-05-25T18:50:34.299Z,97419.47
2023-05-25T18:53:01.104Z,97424.63
2023-05-25T18:55:28.569Z,97423.56
2023-05-25T18:57:55.467Z,97426.03
2023-05-25T19:00:22.596Z,97422.78
2023-05-25T19:02:49.611Z,97426.28
2023-05-25T19:05:16.509Z,97426.53
2023-05-25T19:07:50.969Z,97425.47
2023-05-25T19:10:25.404Z,97430.25
2023-05-25T19:12:55.216Z,97435.72
2023-05-25T19:15:22.161Z,97438.97
2023-05-25T19:17:49.118Z,97443.59
2023-05-25T19:20:16.186Z,97436.38
2023-05-25T19:22:43.119Z,97439.94
2023-05-25T19:25:09.933Z,97438.53
2023-05-25T19:27:36.839Z,97442.63
2023-05-25T19:30:04.017Z,97446.66
2023-05-25T19:32:30.800Z,97457.25
2023-05-25T19:34:57.612Z,97464.63
2023-05-25T19:37:24.378Z,97470.91
2023-05-25T19:39:51.190Z,97469.25
2023-05-25T19:42:18.038Z,97478.06
2023-05-25T19:44:45.253Z,97477.31
2023-05-25T19:47:12.326Z,97483.28
2023-05-25T19:49:39.149Z,97481.56
2023-05-25T19:52:06.011Z,97478.97
2023-05-25T19:54:32.772Z,97483.84
2023-05-25T19:56:59.523Z,97488.81
2023-05-25T19:59:26.318Z,97487.06
2023-05-25T20:01:53.148Z,97487.88
2023-05-25T20:04:20.190Z,97487.53
2023-05-25T20:06:47.064Z,97491.09
2023-05-25T20:09:13.823Z,97484.31
2023-05-25T20:11:40.767Z,97490.03
2023-05-25T20:14:07.582Z,97497.31
2023-05-25T20:16:34.787Z,97493.25
2023-05-25T20:19:02.294Z,97490.78
2023-05-25T20:21:30.617Z,97488.53
2023-05-25T20:23:57.555Z,97495.66
2023-05-25T20:26:24.415Z,97496.72
2023-05-25T20:28:51.263Z,97498.63
2023-05-25T20:31:18.088Z,97492.56
2023-05-25T20:33:44.978Z,97494.22
2023-05-25T20:36:12.719Z,97486.03
2023-05-25T20:38:40.602Z,97494.13
2023-05-25T20:41:07.475Z,97488.75
2023-05-25T20:43:34.368Z,97492.22
2023-05-25T20:46:01.260Z,97497.59
2023-05-25T20:48:28.148Z,97503.66
2023-05-25T20:50:55.022Z,97505.31
2023-05-25T20:53:22.870Z,97502.00
2023-05-25T20:55:49.705Z,97493.94
2023-05-25T20:58:16.528Z,97490.97
2023-05-25T21:00:44.078Z,97494.63
2023-05-25T21:03:11.110Z,97488.47
2023-05-25T21:05:37.984Z,97493.34
2023-05-25T21:08:04.906Z,97502.38
2023-05-25T21:10:31.841Z,97507.00
2023-05-25T21:12:58.693Z,97502.25
2023-05-25T21:15:26.034Z,97502.88
2023-05-25T21:17:52.905Z,97505.81
2023-05-25T21:20:20.015Z,97509.88
2023-05-25T21:22:46.933Z,97505.34
2023-05-25T21:25:13.798Z,97502.88
2023-05-25T21:27:40.602Z,97505.34
2023-05-25T21:30:07.969Z,97510.13
2023-05-25T21:32:34.868Z,97507.13
2023-05-25T21:35:01.846Z,97505.47
2023-05-25T21:37:28.728Z,97503.25
2023-05-25T21:39:55.556Z,97503.91
2023-05-25T21:42:22.437Z,97515.44
2023-05-25T21:44:49.250Z,97516.78
2023-05-25T21:47:16.071Z,97515.66
2023-05-25T21:49:42.959Z,97519.38
2023-05-25T21:52:09.765Z,97509.53
2023-05-25T21:54:36.639Z,97512.72
2023-05-25T21:57:03.573Z,97514.28
2023-05-25T21:59:30.317Z,97509.78
2023-05-25T22:01:57.220Z,97512.38
2023-05-25T22:04:24.104Z,97511.06
2023-05-25T22:06:50.890Z,97511.31
2023-05-25T22:09:17.733Z,97514.63
2023-05-25T22:11:44.495Z,97522.47
2023-05-25T22:14:11.264Z,97520.00
2023-05-25T22:16:38.316Z,97520.09
2023-05-25T22:19:05.212Z,97518.66
2023-05-25T22:21:32.034Z,97520.31
2023-05-25T22:23:59.279Z,97519.41
2023-05-25T22:26:26.026Z,97524.97
2023-05-25T22:28:52.828Z,97522.13
2023-05-25T22:31:19.630Z,97513.69
2023-05-25T22:33:46.385Z,97520.69
2023-05-25T22:36:13.167Z,97522.34
2023-05-25T22:38:39.942Z,97516.91
2023-05-25T22:41:06.707Z,97517.97
2023-05-25T22:43:33.497Z,97515.81
2023-05-25T22:46:00.422Z,97517.09
2023-05-25T22:48:27.247Z,97515.00
2023-05-25T22:50:54.044Z,97520.56
2023-05-25T22:53:21.349Z,97517.34
2023-05-25T22:55:48.271Z,97521.53
2023-05-25T22:58:15.277Z,97513.56
2023-05-25T23:00:42.054Z,97514.53
2023-05-25T23:03:08.974Z,97516.91
2023-05-25T23:05:35.818Z,97515.22
2023-05-25T23:08:02.613Z,97519.41
2023-05-25T23:10:29.332Z,97528.25
2023-05-25T23:12:56.043Z,97518.91
2023-05-25T23:15:22.787Z,97521.63
2023-05-25T23:17:49.527Z,97534.72
2023-05-25T23:20:16.396Z,97528.41
2023-05-25T23:22:43.237Z,97524.00
2023-05-25T23:25:10.125Z,97520.91
2023-05-25T23:27:36.845Z,97524.84
2023-05-25T23:30:04.113Z,97520.56
2023-05-25T23:32:30.898Z,97522.97
2023-05-25T23:34:57.632Z,97519.41
2023-05-25T23:37:24.336Z,97517.97
2023-05-25T23:39:51.039Z,97519.28
2023-05-25T23:42:17.837Z,97514.16
2023-05-25T23:44:44.559Z,97513.81
2023-05-25T23:47:11.261Z,97504.31
2023-05-25T23:49:38.031Z,97506.38
2023-05-25T23:52:06.000Z,97508.13
2023-05-25T23:54:32.719Z,97513.25
2023-05-25T23:56:59.487Z,97507.78
2023-05-25T23:59:26.284Z,97508.84
